sensor_id;sensor_type;location;lat;lon;timestamp;P1;durP1;ratioP1;P2;durP2;ratioP2
52158;SDS011;38145;53.182;6.284;2023-05-23T00:02:10;33.95;;;21.30;;
52158;SDS011;38145;53.182;6.284;2023-05-23T00:04:37;35.60;;;19.45;;
52158;SDS011;38145;53.182;6.284;2023-05-23T00:07:03;27.38;;;18.48;;
52158;SDS011;38145;53.182;6.284;2023-05-23T00:09:29;26.58;;;18.35;;
52158;SDS011;38145;53.182;6.284;2023-05-23T00:11:55;29.95;;;18.05;;
52158;SDS011;38145;53.182;6.284;2023-05-23T00:14:22;26.25;;;17.35;;
52158;SDS011;38145;53.182;6.284;2023-05-23T00:16:48;27.02;;;17.00;;
52158;SDS011;38145;53.182;6.284;2023-05-23T00:19:14;27.05;;;17.15;;
52158;SDS011;38145;53.182;6.284;2023-05-23T00:21:42;27.58;;;16.55;;
52158;SDS011;38145;53.182;6.284;2023-05-23T00:24:13;24.38;;;15.45;;
52158;SDS011;38145;53.182;6.284;2023-05-23T00:26:43;25.98;;;15.90;;
52158;SDS011;38145;53.182;6.284;2023-05-23T00:29:11;19.67;;;14.05;;
52158;SDS011;38145;53.182;6.284;2023-05-23T00:31:41;22.38;;;15.15;;
52158;SDS011;38145;53.182;6.284;2023-05-23T00:34:14;29.00;;;14.02;;
52158;SDS011;38145;53.182;6.284;2023-05-23T00:36:42;27.90;;;14.30;;
52158;SDS011;38145;53.182;6.284;2023-05-23T00:39:11;25.67;;;15.10;;
52158;SDS011;38145;53.182;6.284;2023-05-23T00:41:44;25.92;;;14.82;;
52158;SDS011;38145;53.182;6.284;2023-05-23T00:44:11;24.73;;;13.45;;
52158;SDS011;38145;53.182;6.284;2023-05-23T00:46:37;26.15;;;12.98;;
52158;SDS011;38145;53.182;6.284;2023-05-23T00:49:03;22.80;;;13.45;;
52158;SDS011;38145;53.182;6.284;2023-05-23T00:51:29;24.02;;;11.45;;
52158;SDS011;38145;53.182;6.284;2023-05-23T00:53:56;27.65;;;12.38;;
52158;SDS011;38145;53.182;6.284;2023-05-23T00:56:25;31.58;;;13.40;;
52158;SDS011;38145;53.182;6.284;2023-05-23T00:58:52;24.67;;;13.45;;
52158;SDS011;38145;53.182;6.284;2023-05-23T01:01:19;32.50;;;13.18;;
52158;SDS011;38145;53.182;6.284;2023-05-23T01:03:45;36.30;;;14.43;;
52158;SDS011;38145;53.182;6.284;2023-05-23T01:06:12;28.80;;;12.43;;
52158;SDS011;38145;53.182;6.284;2023-05-23T01:08:39;27.60;;;14.38;;
52158;SDS011;38145;53.182;6.284;2023-05-23T01:11:09;36.25;;;15.05;;
52158;SDS011;38145;53.182;6.284;2023-05-23T01:13:44;33.95;;;16.55;;
52158;SDS011;38145;53.182;6.284;2023-05-23T01:16:27;37.80;;;15.73;;
52158;SDS011;38145;53.182;6.284;2023-05-23T01:21:42;36.97;;;15.65;;
52158;SDS011;38145;53.182;6.284;2023-05-23T01:24:28;35.95;;;15.43;;
52158;SDS011;38145;53.182;6.284;2023-05-23T01:27:12;34.53;;;15.98;;
52158;SDS011;38145;53.182;6.284;2023-05-23T01:29:48;37.72;;;15.75;;
52158;SDS011;38145;53.182;6.284;2023-05-23T01:32:20;27.92;;;15.50;;
52158;SDS011;38145;53.182;6.284;2023-05-23T01:34:51;33.42;;;15.00;;
52158;SDS011;38145;53.182;6.284;2023-05-23T01:37:18;37.47;;;15.70;;
52158;SDS011;38145;53.182;6.284;2023-05-23T01:39:44;38.38;;;17.65;;
52158;SDS011;38145;53.182;6.284;2023-05-23T01:42:10;32.17;;;15.77;;
52158;SDS011;38145;53.182;6.284;2023-05-23T01:44:37;33.72;;;15.65;;
52158;SDS011;38145;53.182;6.284;2023-05-23T01:47:06;36.13;;;14.80;;
52158;SDS011;38145;53.182;6.284;2023-05-23T01:49:34;34.28;;;15.13;;
52158;SDS011;38145;53.182;6.284;2023-05-23T01:52:02;32.40;;;15.00;;
52158;SDS011;38145;53.182;6.284;2023-05-23T01:54:30;30.17;;;16.05;;
52158;SDS011;38145;53.182;6.284;2023-05-23T01:56:59;29.00;;;14.57;;
52158;SDS011;38145;53.182;6.284;2023-05-23T01:59:26;31.33;;;13.90;;
52158;SDS011;38145;53.182;6.284;2023-05-23T02:01:52;29.42;;;13.73;;
52158;SDS011;38145;53.182;6.284;2023-05-23T02:04:18;28.48;;;14.15;;
52158;SDS011;38145;53.182;6.284;2023-05-23T02:06:44;28.85;;;12.35;;
52158;SDS011;38145;53.182;6.284;2023-05-23T02:09:10;34.00;;;12.52;;
52158;SDS011;38145;53.182;6.284;2023-05-23T02:11:36;27.10;;;11.77;;
52158;SDS011;38145;53.182;6.284;2023-05-23T02:14:02;26.88;;;12.55;;
52158;SDS011;38145;53.182;6.284;2023-05-23T02:16:28;29.75;;;12.10;;
52158;SDS011;38145;53.182;6.284;2023-05-23T02:18:54;33.95;;;12.05;;
52158;SDS011;38145;53.182;6.284;2023-05-23T02:21:22;28.95;;;10.80;;
52158;SDS011;38145;53.182;6.284;2023-05-23T02:26:14;28.40;;;11.27;;
52158;SDS011;38145;53.182;6.284;2023-05-23T02:28:40;32.33;;;10.57;;
52158;SDS011;38145;53.182;6.284;2023-05-23T02:31:06;25.75;;;10.63;;
52158;SDS011;38145;53.182;6.284;2023-05-23T02:33:32;24.30;;;9.88;;
52158;SDS011;38145;53.182;6.284;2023-05-23T02:35:58;24.95;;;10.07;;
52158;SDS011;38145;53.182;6.284;2023-05-23T02:38:24;21.08;;;9.63;;
52158;SDS011;38145;53.182;6.284;2023-05-23T02:40:51;24.27;;;9.67;;
52158;SDS011;38145;53.182;6.284;2023-05-23T02:43:18;28.42;;;10.93;;
52158;SDS011;38145;53.182;6.284;2023-05-23T02:45:44;26.92;;;9.82;;
52158;SDS011;38145;53.182;6.284;2023-05-23T02:48:11;31.55;;;12.15;;
52158;SDS011;38145;53.182;6.284;2023-05-23T02:50:37;30.65;;;10.77;;
52158;SDS011;38145;53.182;6.284;2023-05-23T02:53:04;28.90;;;11.63;;
52158;SDS011;38145;53.182;6.284;2023-05-23T02:55:30;25.70;;;9.93;;
52158;SDS011;38145;53.182;6.284;2023-05-23T02:57:58;26.10;;;9.50;;
52158;SDS011;38145;53.182;6.284;2023-05-23T03:00:24;25.35;;;10.63;;
52158;SDS011;38145;53.182;6.284;2023-05-23T03:02:52;30.80;;;10.48;;
52158;SDS011;38145;53.182;6.284;2023-05-23T03:05:18;23.05;;;9.45;;
52158;SDS011;38145;53.182;6.284;2023-05-23T03:07:45;22.13;;;9.45;;
52158;SDS011;38145;53.182;6.284;2023-05-23T03:10:10;28.38;;;10.18;;
52158;SDS011;38145;53.182;6.284;2023-05-23T03:12:36;27.73;;;9.80;;
52158;SDS011;38145;53.182;6.284;2023-05-23T03:15:02;29.80;;;8.95;;
52158;SDS011;38145;53.182;6.284;2023-05-23T03:17:29;25.55;;;8.70;;
52158;SDS011;38145;53.182;6.284;2023-05-23T03:19:55;22.33;;;7.75;;
52158;SDS011;38145;53.182;6.284;2023-05-23T03:22:21;17.60;;;7.68;;
52158;SDS011;38145;53.182;6.284;2023-05-23T03:24:47;18.27;;;8.00;;
52158;SDS011;38145;53.182;6.284;2023-05-23T03:27:13;17.08;;;7.95;;
52158;SDS011;38145;53.182;6.284;2023-05-23T03:29:39;18.50;;;7.55;;
52158;SDS011;38145;53.182;6.284;2023-05-23T03:32:05;18.70;;;7.47;;
52158;SDS011;38145;53.182;6.284;2023-05-23T03:34:31;22.20;;;7.35;;
52158;SDS011;38145;53.182;6.284;2023-05-23T03:36:58;27.60;;;7.00;;
52158;SDS011;38145;53.182;6.284;2023-05-23T03:39:24;19.58;;;6.32;;
52158;SDS011;38145;53.182;6.284;2023-05-23T03:41:51;26.08;;;7.38;;
52158;SDS011;38145;53.182;6.284;2023-05-23T03:44:18;16.90;;;6.32;;
52158;SDS011;38145;53.182;6.284;2023-05-23T03:46:44;17.50;;;6.75;;
52158;SDS011;38145;53.182;6.284;2023-05-23T03:49:10;22.95;;;7.32;;
52158;SDS011;38145;53.182;6.284;2023-05-23T03:51:36;17.15;;;6.47;;
52158;SDS011;38145;53.182;6.284;2023-05-23T03:54:02;21.13;;;8.10;;
52158;SDS011;38145;53.182;6.284;2023-05-23T03:56:29;19.27;;;7.88;;
52158;SDS011;38145;53.182;6.284;2023-05-23T03:58:55;17.50;;;7.85;;
52158;SDS011;38145;53.182;6.284;2023-05-23T04:01:21;16.75;;;8.27;;
52158;SDS011;38145;53.182;6.284;2023-05-23T04:03:47;17.58;;;8.05;;
52158;SDS011;38145;53.182;6.284;2023-05-23T04:06:13;19.58;;;9.30;;
52158;SDS011;38145;53.182;6.284;2023-05-23T04:08:41;17.48;;;8.63;;
52158;SDS011;38145;53.182;6.284;2023-05-23T04:11:07;18.25;;;7.95;;
52158;SDS011;38145;53.182;6.284;2023-05-23T04:13:34;16.65;;;7.70;;
52158;SDS011;38145;53.182;6.284;2023-05-23T04:16:01;15.83;;;6.90;;
52158;SDS011;38145;53.182;6.284;2023-05-23T04:18:31;18.25;;;7.72;;
52158;SDS011;38145;53.182;6.284;2023-05-23T04:20:58;20.23;;;7.60;;
52158;SDS011;38145;53.182;6.284;2023-05-23T04:23:24;19.33;;;7.38;;
52158;SDS011;38145;53.182;6.284;2023-05-23T04:25:50;20.90;;;8.70;;
52158;SDS011;38145;53.182;6.284;2023-05-23T04:28:16;24.10;;;8.60;;
52158;SDS011;38145;53.182;6.284;2023-05-23T04:30:43;20.02;;;8.35;;
52158;SDS011;38145;53.182;6.284;2023-05-23T04:33:09;21.17;;;8.18;;
52158;SDS011;38145;53.182;6.284;2023-05-23T04:35:36;23.63;;;8.30;;
52158;SDS011;38145;53.182;6.284;2023-05-23T04:38:04;25.52;;;9.38;;
52158;SDS011;38145;53.182;6.284;2023-05-23T04:40:31;17.27;;;8.25;;
52158;SDS011;38145;53.182;6.284;2023-05-23T04:42:57;26.30;;;9.30;;
52158;SDS011;38145;53.182;6.284;2023-05-23T04:45:23;17.60;;;9.05;;
52158;SDS011;38145;53.182;6.284;2023-05-23T04:47:50;25.60;;;9.65;;
52158;SDS011;38145;53.182;6.284;2023-05-23T04:50:19;18.85;;;8.73;;
52158;SDS011;38145;53.182;6.284;2023-05-23T04:55:13;16.55;;;7.68;;
52158;SDS011;38145;53.182;6.284;2023-05-23T04:57:39;24.33;;;8.30;;
52158;SDS011;38145;53.182;6.284;2023-05-23T05:00:05;20.15;;;7.80;;
52158;SDS011;38145;53.182;6.284;2023-05-23T05:02:35;20.58;;;7.50;;
52158;SDS011;38145;53.182;6.284;2023-05-23T05:05:01;13.93;;;7.35;;
52158;SDS011;38145;53.182;6.284;2023-05-23T05:07:28;15.70;;;7.43;;
52158;SDS011;38145;53.182;6.284;2023-05-23T05:09:55;18.70;;;6.85;;
52158;SDS011;38145;53.182;6.284;2023-05-23T05:12:21;15.38;;;7.03;;
52158;SDS011;38145;53.182;6.284;2023-05-23T05:14:47;20.52;;;8.13;;
52158;SDS011;38145;53.182;6.284;2023-05-23T05:17:13;15.18;;;6.55;;
52158;SDS011;38145;53.182;6.284;2023-05-23T05:19:39;17.02;;;7.07;;
52158;SDS011;38145;53.182;6.284;2023-05-23T05:22:05;19.45;;;7.68;;
52158;SDS011;38145;53.182;6.284;2023-05-23T05:24:32;17.80;;;7.78;;
52158;SDS011;38145;53.182;6.284;2023-05-23T05:26:58;18.98;;;8.25;;
52158;SDS011;38145;53.182;6.284;2023-05-23T05:29:24;17.83;;;6.75;;
52158;SDS011;38145;53.182;6.284;2023-05-23T05:31:50;19.27;;;6.45;;
52158;SDS011;38145;53.182;6.284;2023-05-23T05:34:17;24.08;;;7.20;;
52158;SDS011;38145;53.182;6.284;2023-05-23T05:36:43;16.08;;;6.57;;
52158;SDS011;38145;53.182;6.284;2023-05-23T05:39:12;18.52;;;7.25;;
52158;SDS011;38145;53.182;6.284;2023-05-23T05:41:39;18.57;;;7.50;;
52158;SDS011;38145;53.182;6.284;2023-05-23T05:44:05;19.10;;;6.38;;
52158;SDS011;38145;53.182;6.284;2023-05-23T05:46:32;17.98;;;6.50;;
52158;SDS011;38145;53.182;6.284;2023-05-23T05:48:58;21.17;;;5.72;;
52158;SDS011;38145;53.182;6.284;2023-05-23T05:51:24;20.25;;;5.65;;
52158;SDS011;38145;53.182;6.284;2023-05-23T05:53:50;15.95;;;5.22;;
52158;SDS011;38145;53.182;6.284;2023-05-23T05:56:16;12.40;;;6.13;;
52158;SDS011;38145;53.182;6.284;2023-05-23T05:58:42;14.50;;;4.97;;
52158;SDS011;38145;53.182;6.284;2023-05-23T06:01:08;19.30;;;5.28;;
52158;SDS011;38145;53.182;6.284;2023-05-23T06:03:34;18.80;;;5.43;;
52158;SDS011;38145;53.182;6.284;2023-05-23T06:06:00;14.93;;;4.97;;
52158;SDS011;38145;53.182;6.284;2023-05-23T06:08:26;16.67;;;5.60;;
52158;SDS011;38145;53.182;6.284;2023-05-23T06:10:52;16.23;;;4.80;;
52158;SDS011;38145;53.182;6.284;2023-05-23T06:13:18;17.20;;;5.68;;
52158;SDS011;38145;53.182;6.284;2023-05-23T06:15:44;19.02;;;5.18;;
52158;SDS011;38145;53.182;6.284;2023-05-23T06:18:10;19.50;;;5.93;;
52158;SDS011;38145;53.182;6.284;2023-05-23T06:20:36;16.60;;;5.25;;
52158;SDS011;38145;53.182;6.284;2023-05-23T06:23:02;15.30;;;4.78;;
52158;SDS011;38145;53.182;6.284;2023-05-23T06:25:30;12.85;;;4.10;;
52158;SDS011;38145;53.182;6.284;2023-05-23T06:27:56;13.80;;;4.35;;
52158;SDS011;38145;53.182;6.284;2023-05-23T06:30:22;19.50;;;5.82;;
52158;SDS011;38145;53.182;6.284;2023-05-23T06:32:48;19.67;;;4.95;;
52158;SDS011;38145;53.182;6.284;2023-05-23T06:35:14;19.13;;;4.88;;
52158;SDS011;38145;53.182;6.284;2023-05-23T06:37:41;24.65;;;4.72;;
52158;SDS011;38145;53.182;6.284;2023-05-23T06:42:38;24.92;;;4.70;;
52158;SDS011;38145;53.182;6.284;2023-05-23T06:45:04;15.85;;;4.25;;
52158;SDS011;38145;53.182;6.284;2023-05-23T06:47:31;17.85;;;6.40;;
52158;SDS011;38145;53.182;6.284;2023-05-23T06:49:57;20.33;;;4.60;;
52158;SDS011;38145;53.182;6.284;2023-05-23T06:52:23;21.02;;;4.55;;
52158;SDS011;38145;53.182;6.284;2023-05-23T06:54:49;21.02;;;4.40;;
52158;SDS011;38145;53.182;6.284;2023-05-23T06:57:15;19.60;;;4.40;;
52158;SDS011;38145;53.182;6.284;2023-05-23T06:59:41;18.85;;;4.15;;
52158;SDS011;38145;53.182;6.284;2023-05-23T07:02:07;17.17;;;4.50;;
52158;SDS011;38145;53.182;6.284;2023-05-23T07:04:33;19.17;;;3.55;;
52158;SDS011;38145;53.182;6.284;2023-05-23T07:06:59;21.13;;;4.88;;
52158;SDS011;38145;53.182;6.284;2023-05-23T07:09:26;19.67;;;4.22;;
52158;SDS011;38145;53.182;6.284;2023-05-23T07:11:52;22.58;;;4.65;;
52158;SDS011;38145;53.182;6.284;2023-05-23T07:14:18;16.83;;;3.58;;
52158;SDS011;38145;53.182;6.284;2023-05-23T07:16:44;16.20;;;4.13;;
52158;SDS011;38145;53.182;6.284;2023-05-23T07:19:10;20.80;;;3.85;;
52158;SDS011;38145;53.182;6.284;2023-05-23T07:21:37;19.08;;;4.47;;
52158;SDS011;38145;53.182;6.284;2023-05-23T07:24:03;22.17;;;4.18;;
52158;SDS011;38145;53.182;6.284;2023-05-23T07:26:30;19.77;;;3.67;;
52158;SDS011;38145;53.182;6.284;2023-05-23T07:28:56;17.27;;;4.82;;
52158;SDS011;38145;53.182;6.284;2023-05-23T07:31:22;15.02;;;4.05;;
52158;SDS011;38145;53.182;6.284;2023-05-23T07:33:48;22.95;;;4.28;;
52158;SDS011;38145;53.182;6.284;2023-05-23T07:36:14;18.52;;;4.05;;
52158;SDS011;38145;53.182;6.284;2023-05-23T07:38:40;17.98;;;4.10;;
52158;SDS011;38145;53.182;6.284;2023-05-23T07:41:06;19.27;;;3.83;;
52158;SDS011;38145;53.182;6.284;2023-05-23T07:43:32;23.42;;;4.03;;
52158;SDS011;38145;53.182;6.284;2023-05-23T07:45:58;23.05;;;4.25;;
52158;SDS011;38145;53.182;6.284;2023-05-23T07:48:24;22.77;;;4.53;;
52158;SDS011;38145;53.182;6.284;2023-05-23T07:50:51;20.05;;;4.65;;
52158;SDS011;38145;53.182;6.284;2023-05-23T07:53:20;15.75;;;3.33;;
52158;SDS011;38145;53.182;6.284;2023-05-23T07:55:46;16.00;;;4.45;;
52158;SDS011;38145;53.182;6.284;2023-05-23T07:58:13;16.73;;;3.92;;
52158;SDS011;38145;53.182;6.284;2023-05-23T08:00:39;14.68;;;3.67;;
52158;SDS011;38145;53.182;6.284;2023-05-23T08:03:05;21.27;;;4.32;;
52158;SDS011;38145;53.182;6.284;2023-05-23T08:05:31;13.75;;;3.60;;
52158;SDS011;38145;53.182;6.284;2023-05-23T08:07:57;17.70;;;4.75;;
52158;SDS011;38145;53.182;6.284;2023-05-23T08:10:23;18.00;;;4.30;;
52158;SDS011;38145;53.182;6.284;2023-05-23T08:12:52;16.98;;;3.90;;
52158;SDS011;38145;53.182;6.284;2023-05-23T08:15:19;17.50;;;4.55;;
52158;SDS011;38145;53.182;6.284;2023-05-23T08:17:47;14.48;;;4.25;;
52158;SDS011;38145;53.182;6.284;2023-05-23T08:20:13;20.88;;;3.90;;
52158;SDS011;38145;53.182;6.284;2023-05-23T08:22:39;17.55;;;4.35;;
52158;SDS011;38145;53.182;6.284;2023-05-23T08:25:05;18.02;;;4.25;;
52158;SDS011;38145;53.182;6.284;2023-05-23T08:27:32;18.83;;;4.40;;
52158;SDS011;38145;53.182;6.284;2023-05-23T08:30:00;15.68;;;4.07;;
52158;SDS011;38145;53.182;6.284;2023-05-23T08:32:27;17.10;;;4.03;;
52158;SDS011;38145;53.182;6.284;2023-05-23T08:34:53;18.50;;;4.03;;
52158;SDS011;38145;53.182;6.284;2023-05-23T08:37:19;16.83;;;4.07;;
52158;SDS011;38145;53.182;6.284;2023-05-23T08:39:45;21.83;;;4.53;;
52158;SDS011;38145;53.182;6.284;2023-05-23T08:42:10;22.17;;;4.97;;
52158;SDS011;38145;53.182;6.284;2023-05-23T08:44:37;19.67;;;4.13;;
52158;SDS011;38145;53.182;6.284;2023-05-23T08:47:04;16.88;;;3.50;;
52158;SDS011;38145;53.182;6.284;2023-05-23T08:49:33;21.55;;;4.53;;
52158;SDS011;38145;53.182;6.284;2023-05-23T08:52:01;19.27;;;3.75;;
52158;SDS011;38145;53.182;6.284;2023-05-23T08:54:28;18.17;;;5.72;;
52158;SDS011;38145;53.182;6.284;2023-05-23T08:56:54;16.27;;;3.80;;
52158;SDS011;38145;53.182;6.284;2023-05-23T08:59:20;18.35;;;4.25;;
52158;SDS011;38145;53.182;6.284;2023-05-23T09:01:47;21.10;;;3.50;;
52158;SDS011;38145;53.182;6.284;2023-05-23T09:04:16;21.55;;;3.88;;
52158;SDS011;38145;53.182;6.284;2023-05-23T09:06:41;18.67;;;3.58;;
52158;SDS011;38145;53.182;6.284;2023-05-23T09:09:07;18.25;;;3.72;;
52158;SDS011;38145;53.182;6.284;2023-05-23T09:11:33;16.00;;;3.78;;
52158;SDS011;38145;53.182;6.284;2023-05-23T09:13:59;24.15;;;3.58;;
52158;SDS011;38145;53.182;6.284;2023-05-23T09:16:30;18.23;;;4.93;;
52158;SDS011;38145;53.182;6.284;2023-05-23T09:18:58;16.15;;;4.72;;
52158;SDS011;38145;53.182;6.284;2023-05-23T09:21:24;12.00;;;3.50;;
52158;SDS011;38145;53.182;6.284;2023-05-23T09:23:50;19.90;;;3.70;;
52158;SDS011;38145;53.182;6.284;2023-05-23T09:26:16;15.02;;;3.40;;
52158;SDS011;38145;53.182;6.284;2023-05-23T09:28:42;12.77;;;3.85;;
52158;SDS011;38145;53.182;6.284;2023-05-23T09:31:09;14.05;;;3.67;;
52158;SDS011;38145;53.182;6.284;2023-05-23T09:33:41;15.02;;;3.50;;
52158;SDS011;38145;53.182;6.284;2023-05-23T09:36:12;18.75;;;3.97;;
52158;SDS011;38145;53.182;6.284;2023-05-23T09:38:38;16.33;;;3.63;;
52158;SDS011;38145;53.182;6.284;2023-05-23T09:41:05;13.18;;;3.67;;
52158;SDS011;38145;53.182;6.284;2023-05-23T09:43:32;22.80;;;4.00;;
52158;SDS011;38145;53.182;6.284;2023-05-23T09:45:59;20.67;;;4.22;;
52158;SDS011;38145;53.182;6.284;2023-05-23T09:48:31;20.73;;;4.35;;
52158;SDS011;38145;53.182;6.284;2023-05-23T09:50:57;19.40;;;4.82;;
52158;SDS011;38145;53.182;6.284;2023-05-23T09:53:27;10.82;;;2.95;;
52158;SDS011;38145;53.182;6.284;2023-05-23T09:55:53;17.48;;;4.15;;
52158;SDS011;38145;53.182;6.284;2023-05-23T09:58:22;15.00;;;3.78;;
52158;SDS011;38145;53.182;6.284;2023-05-23T10:00:50;20.93;;;4.07;;
52158;SDS011;38145;53.182;6.284;2023-05-23T10:03:17;16.87;;;4.73;;
52158;SDS011;38145;53.182;6.284;2023-05-23T10:05:48;17.63;;;3.00;;
52158;SDS011;38145;53.182;6.284;2023-05-23T10:08:19;12.90;;;3.03;;
52158;SDS011;38145;53.182;6.284;2023-05-23T10:11:07;15.05;;;4.45;;
52158;SDS011;38145;53.182;6.284;2023-05-23T10:13:42;20.73;;;3.92;;
52158;SDS011;38145;53.182;6.284;2023-05-23T10:16:14;14.68;;;3.72;;
52158;SDS011;38145;53.182;6.284;2023-05-23T10:18:47;16.25;;;3.42;;
52158;SDS011;38145;53.182;6.284;2023-05-23T10:21:24;15.15;;;3.22;;
52158;SDS011;38145;53.182;6.284;2023-05-23T10:23:57;13.80;;;3.42;;
52158;SDS011;38145;53.182;6.284;2023-05-23T10:26:26;11.07;;;2.65;;
52158;SDS011;38145;53.182;6.284;2023-05-23T10:28:52;19.52;;;4.60;;
52158;SDS011;38145;53.182;6.284;2023-05-23T10:31:19;14.52;;;3.30;;
52158;SDS011;38145;53.182;6.284;2023-05-23T10:33:49;19.27;;;4.22;;
52158;SDS011;38145;53.182;6.284;2023-05-23T10:36:24;17.85;;;3.95;;
52158;SDS011;38145;53.182;6.284;2023-05-23T10:39:01;14.85;;;3.85;;
52158;SDS011;38145;53.182;6.284;2023-05-23T10:41:41;13.57;;;3.90;;
52158;SDS011;38145;53.182;6.284;2023-05-23T10:44:22;20.40;;;3.95;;
52158;SDS011;38145;53.182;6.284;2023-05-23T10:46:53;17.17;;;3.90;;
52158;SDS011;38145;53.182;6.284;2023-05-23T10:49:36;17.08;;;3.83;;
52158;SDS011;38145;53.182;6.284;2023-05-23T10:52:05;19.83;;;4.38;;
52158;SDS011;38145;53.182;6.284;2023-05-23T10:54:41;16.38;;;3.65;;
52158;SDS011;38145;53.182;6.284;2023-05-23T10:57:09;17.63;;;3.75;;
52158;SDS011;38145;53.182;6.284;2023-05-23T11:02:06;14.75;;;3.70;;
52158;SDS011;38145;53.182;6.284;2023-05-23T11:04:40;17.95;;;3.40;;
52158;SDS011;38145;53.182;6.284;2023-05-23T11:10:10;10.90;;;2.65;;
52158;SDS011;38145;53.182;6.284;2023-05-23T11:12:40;14.38;;;3.35;;
52158;SDS011;38145;53.182;6.284;2023-05-23T11:17:52;13.75;;;3.00;;
52158;SDS011;38145;53.182;6.284;2023-05-23T11:20:21;13.77;;;3.40;;
52158;SDS011;38145;53.182;6.284;2023-05-23T11:22:52;13.68;;;3.47;;
52158;SDS011;38145;53.182;6.284;2023-05-23T11:25:39;12.75;;;3.10;;
52158;SDS011;38145;53.182;6.284;2023-05-23T11:28:16;18.80;;;4.35;;
52158;SDS011;38145;53.182;6.284;2023-05-23T11:30:42;15.60;;;3.67;;
52158;SDS011;38145;53.182;6.284;2023-05-23T11:33:12;15.65;;;3.78;;
52158;SDS011;38145;53.182;6.284;2023-05-23T11:35:39;13.35;;;4.18;;
52158;SDS011;38145;53.182;6.284;2023-05-23T11:38:05;17.13;;;3.93;;
52158;SDS011;38145;53.182;6.284;2023-05-23T11:40:32;19.25;;;4.30;;
52158;SDS011;38145;53.182;6.284;2023-05-23T11:45:27;16.08;;;3.40;;
52158;SDS011;38145;53.182;6.284;2023-05-23T11:47:54;10.63;;;2.75;;
52158;SDS011;38145;53.182;6.284;2023-05-23T11:50:20;13.32;;;2.95;;
52158;SDS011;38145;53.182;6.284;2023-05-23T11:52:46;20.67;;;3.55;;
52158;SDS011;38145;53.182;6.284;2023-05-23T11:55:16;18.10;;;4.13;;
52158;SDS011;38145;53.182;6.284;2023-05-23T11:57:43;20.60;;;3.60;;
52158;SDS011;38145;53.182;6.284;2023-05-23T12:00:10;8.25;;;3.45;;
52158;SDS011;38145;53.182;6.284;2023-05-23T12:02:37;18.60;;;3.93;;
52158;SDS011;38145;53.182;6.284;2023-05-23T12:05:07;15.85;;;3.20;;
52158;SDS011;38145;53.182;6.284;2023-05-23T12:07:33;14.52;;;3.05;;
52158;SDS011;38145;53.182;6.284;2023-05-23T12:10:02;12.18;;;3.15;;
52158;SDS011;38145;53.182;6.284;2023-05-23T12:12:30;14.20;;;2.78;;
52158;SDS011;38145;53.182;6.284;2023-05-23T12:14:57;13.75;;;2.92;;
52158;SDS011;38145;53.182;6.284;2023-05-23T12:17:24;9.88;;;2.55;;
52158;SDS011;38145;53.182;6.284;2023-05-23T12:19:51;13.85;;;2.70;;
52158;SDS011;38145;53.182;6.284;2023-05-23T12:24:47;11.43;;;2.40;;
52158;SDS011;38145;53.182;6.284;2023-05-23T12:27:14;16.58;;;3.05;;
52158;SDS011;38145;53.182;6.284;2023-05-23T12:29:41;13.82;;;2.88;;
52158;SDS011;38145;53.182;6.284;2023-05-23T12:32:14;18.75;;;3.35;;
52158;SDS011;38145;53.182;6.284;2023-05-23T12:34:40;13.57;;;3.83;;
52158;SDS011;38145;53.182;6.284;2023-05-23T12:37:07;15.18;;;3.85;;
52158;SDS011;38145;53.182;6.284;2023-05-23T12:39:33;12.77;;;3.03;;
52158;SDS011;38145;53.182;6.284;2023-05-23T12:42:11;13.00;;;2.60;;
52158;SDS011;38145;53.182;6.284;2023-05-23T12:44:39;11.15;;;2.33;;
52158;SDS011;38145;53.182;6.284;2023-05-23T12:47:06;12.95;;;2.63;;
52158;SDS011;38145;53.182;6.284;2023-05-23T12:49:32;10.15;;;2.45;;
52158;SDS011;38145;53.182;6.284;2023-05-23T12:51:58;16.88;;;3.00;;
52158;SDS011;38145;53.182;6.284;2023-05-23T12:54:24;12.98;;;2.20;;
52158;SDS011;38145;53.182;6.284;2023-05-23T12:56:50;11.95;;;2.92;;
52158;SDS011;38145;53.182;6.284;2023-05-23T12:59:15;15.73;;;3.25;;
52158;SDS011;38145;53.182;6.284;2023-05-23T13:01:42;11.25;;;3.08;;
52158;SDS011;38145;53.182;6.284;2023-05-23T13:04:08;12.75;;;2.70;;
52158;SDS011;38145;53.182;6.284;2023-05-23T13:06:34;7.35;;;1.83;;
52158;SDS011;38145;53.182;6.284;2023-05-23T13:09:00;15.73;;;3.00;;
52158;SDS011;38145;53.182;6.284;2023-05-23T13:11:26;17.30;;;3.40;;
52158;SDS011;38145;53.182;6.284;2023-05-23T13:13:52;13.10;;;3.15;;
52158;SDS011;38145;53.182;6.284;2023-05-23T13:16:19;9.93;;;2.38;;
52158;SDS011;38145;53.182;6.284;2023-05-23T13:18:45;8.82;;;3.00;;
52158;SDS011;38145;53.182;6.284;2023-05-23T13:21:11;13.77;;;3.15;;
52158;SDS011;38145;53.182;6.284;2023-05-23T13:23:37;19.55;;;3.00;;
52158;SDS011;38145;53.182;6.284;2023-05-23T13:26:03;17.45;;;3.00;;
52158;SDS011;38145;53.182;6.284;2023-05-23T13:28:31;13.68;;;3.30;;
52158;SDS011;38145;53.182;6.284;2023-05-23T13:30:57;14.23;;;3.35;;
52158;SDS011;38145;53.182;6.284;2023-05-23T13:33:23;10.73;;;3.05;;
52158;SDS011;38145;53.182;6.284;2023-05-23T13:35:50;11.25;;;3.17;;
52158;SDS011;38145;53.182;6.284;2023-05-23T13:38:17;12.02;;;2.58;;
52158;SDS011;38145;53.182;6.284;2023-05-23T13:40:43;10.07;;;2.33;;
52158;SDS011;38145;53.182;6.284;2023-05-23T13:43:10;10.10;;;2.28;;
52158;SDS011;38145;53.182;6.284;2023-05-23T13:45:36;13.77;;;3.40;;
52158;SDS011;38145;53.182;6.284;2023-05-23T13:48:02;11.45;;;2.90;;
52158;SDS011;38145;53.182;6.284;2023-05-23T13:50:29;12.90;;;2.80;;
52158;SDS011;38145;53.182;6.284;2023-05-23T13:52:55;16.33;;;2.80;;
52158;SDS011;38145;53.182;6.284;2023-05-23T13:55:21;11.50;;;2.63;;
52158;SDS011;38145;53.182;6.284;2023-05-23T13:57:47;14.05;;;3.28;;
52158;SDS011;38145;53.182;6.284;2023-05-23T14:00:13;17.63;;;2.65;;
52158;SDS011;38145;53.182;6.284;2023-05-23T14:02:40;11.95;;;2.50;;
52158;SDS011;38145;53.182;6.284;2023-05-23T14:05:06;11.57;;;2.60;;
52158;SDS011;38145;53.182;6.284;2023-05-23T14:07:32;14.75;;;2.40;;
52158;SDS011;38145;53.182;6.284;2023-05-23T14:09:58;12.43;;;2.42;;
52158;SDS011;38145;53.182;6.284;2023-05-23T14:12:24;12.18;;;2.63;;
52158;SDS011;38145;53.182;6.284;2023-05-23T14:14:50;13.80;;;3.00;;
52158;SDS011;38145;53.182;6.284;2023-05-23T14:17:16;15.93;;;2.97;;
52158;SDS011;38145;53.182;6.284;2023-05-23T14:19:43;13.48;;;2.80;;
52158;SDS011;38145;53.182;6.284;2023-05-23T14:22:09;12.45;;;2.78;;
52158;SDS011;38145;53.182;6.284;2023-05-23T14:24:35;15.07;;;2.70;;
52158;SDS011;38145;53.182;6.284;2023-05-23T14:27:01;22.33;;;3.67;;
52158;SDS011;38145;53.182;6.284;2023-05-23T14:29:28;16.98;;;3.72;;
52158;SDS011;38145;53.182;6.284;2023-05-23T14:31:54;13.70;;;2.65;;
52158;SDS011;38145;53.182;6.284;2023-05-23T14:34:20;11.27;;;2.70;;
52158;SDS011;38145;53.182;6.284;2023-05-23T14:36:46;11.20;;;3.30;;
52158;SDS011;38145;53.182;6.284;2023-05-23T14:39:11;15.85;;;3.50;;
52158;SDS011;38145;53.182;6.284;2023-05-23T14:41:38;12.60;;;2.67;;
52158;SDS011;38145;53.182;6.284;2023-05-23T14:44:04;16.15;;;3.13;;
52158;SDS011;38145;53.182;6.284;2023-05-23T14:46:30;18.17;;;3.22;;
52158;SDS011;38145;53.182;6.284;2023-05-23T14:48:56;14.20;;;2.88;;
52158;SDS011;38145;53.182;6.284;2023-05-23T14:51:22;19.80;;;3.17;;
52158;SDS011;38145;53.182;6.284;2023-05-23T14:53:48;12.23;;;3.15;;
52158;SDS011;38145;53.182;6.284;2023-05-23T14:56:14;11.55;;;2.45;;
52158;SDS011;38145;53.182;6.284;2023-05-23T14:58:40;7.40;;;2.38;;